LTAG/ADF METAR and TAF weather

Enter ICAO airport designator
Station Type Date Time Source
LTAG METAR 2019/02/20 17:20 UTC NOAA

LTAG 201720Z 00000KT 9999 FEW025CB SCT030 BKN090 12/10 Q1020 NOSIG


Station Type Date Time Source
LTAG Decoded METAR 2019/02/20 17:20 UTC NOAA

Adana / Incirlik, Turkey (LTAG) 37-00N 035-25E 66M
Feb 20, 2019 - 12:20 PM EST / 2019.02.20 1720 UTC
Wind: Calm:0
Visibility: greater than 7 mile(s):0
Sky conditions: mostly cloudy
Weather: Cumulonimbus clouds observed
Temperature: 53 F (12 C)
Dew Point: 50 F (10 C)
Relative Humidity: 87%
Pressure (altimeter): 30.12 in. Hg (1020 hPa)
ob: LTAG 201720Z 00000KT 9999 FEW025CB SCT030 BKN090 12/10 Q1020 NOSIG
cycle: 17

Station Type Date Time Source
LTAG TAF 2019/02/20 18:03 UTC NOAA

TAF TAF LTAG 201640Z 2018/2118 03008KT 9999 SCT035 BKN100
TEMPO 2021/2101 -SHRA
TEMPO 2112/2116 -SHRA


Example: see airport list